createdAt,value
2023-01-20T01:50:26.824Z,12.12
2023-01-20T01:51:35.491Z,14.29
2023-01-20T01:52:41.161Z,13.27
2023-01-20T01:53:46.517Z,13.04
2023-01-20T01:54:48.710Z,13.99
2023-01-20T01:55:56.983Z,13.92
2023-01-20T01:57:00.037Z,13.44
2023-01-20T01:58:04.351Z,13.22
2023-01-20T01:59:07.489Z,14.49
2023-01-20T02:00:10.763Z,14.28
2023-01-20T02:01:13.935Z,12.70
2023-01-20T02:02:19.681Z,11.89
2023-01-20T02:03:21.923Z,11.16
2023-01-20T02:04:26.055Z,11.38
2023-01-20T02:05:29.946Z,12.19
2023-01-20T02:06:35.466Z,11.86
2023-01-20T02:07:38.845Z,11.07
2023-01-20T02:08:42.133Z,12.49
2023-01-20T02:09:44.549Z,12.18
2023-01-20T02:10:46.576Z,11.53
2023-01-20T02:11:51.949Z,11.49
2023-01-20T02:12:54.383Z,11.32
2023-01-20T02:13:58.091Z,10.63
2023-01-20T02:15:02.832Z,11.52
2023-01-20T02:16:15.121Z,9.46
2023-01-20T02:17:42.240Z,10.53
2023-01-20T02:18:59.672Z,10.57
2023-01-20T02:20:34.682Z,9.92
2023-01-20T02:22:09.573Z,9.86
2023-01-20T02:23:15.328Z,9.39
2023-01-20T02:24:40.666Z,9.28
2023-01-20T02:26:06.349Z,9.18
2023-01-20T02:27:30.290Z,9.93
2023-01-20T02:29:09.899Z,9.79
2023-01-20T02:30:38.195Z,9.01
2023-01-20T02:31:56.276Z,10.09
2023-01-20T02:33:02.167Z,9.57
2023-01-20T02:34:11.020Z,9.78
2023-01-20T02:36:32.562Z,8.69
2023-01-20T02:37:53.563Z,9.12
2023-01-20T02:39:08.265Z,10.54
2023-01-20T02:40:29.022Z,10.04
2023-01-20T02:41:57.713Z,9.53
2023-01-20T02:43:15.324Z,8.19
2023-01-20T02:44:24.046Z,8.65
2023-01-20T02:45:48.316Z,9.11
2023-01-20T02:48:25.694Z,9.67
2023-01-20T02:49:34.306Z,9.66
2023-01-20T02:50:48.844Z,9.28
2023-01-20T02:52:06.709Z,9.84
2023-01-20T02:53:14.079Z,9.13
2023-01-20T02:54:18.100Z,9.87
2023-01-20T02:55:24.269Z,9.58
2023-01-20T02:56:29.437Z,8.94
2023-01-20T02:57:38.344Z,9.48
2023-01-20T02:58:44.069Z,9.56
2023-01-20T02:59:49.748Z,9.37
2023-01-20T03:00:55.588Z,9.72
2023-01-20T03:02:01.419Z,9.65
2023-01-20T03:03:07.681Z,9.19
2023-01-20T03:04:13.276Z,9.80
2023-01-20T03:05:19.079Z,9.80
2023-01-20T03:06:24.832Z,9.66
2023-01-20T03:07:30.417Z,10.05
2023-01-20T03:08:34.402Z,9.55
2023-01-20T03:09:49.071Z,10.67
2023-01-20T03:10:54.080Z,9.74
2023-01-20T03:12:03.340Z,10.76
2023-01-20T03:13:18.243Z,9.53
2023-01-20T03:14:21.931Z,10.65
2023-01-20T03:15:30.320Z,10.01
2023-01-20T03:16:32.760Z,9.22
2023-01-20T03:17:36.275Z,10.37
2023-01-20T03:18:39.011Z,10.42
2023-01-20T03:19:41.181Z,9.56
2023-01-20T03:20:43.511Z,10.91
2023-01-20T03:21:45.917Z,9.84
2023-01-20T03:22:50.329Z,9.89
2023-01-20T03:23:55.638Z,10.59
2023-01-20T03:24:58.644Z,11.04
2023-01-20T03:26:04.025Z,11.14
2023-01-20T03:27:07.250Z,11.13
2023-01-20T03:28:09.823Z,9.69
2023-01-20T03:29:11.833Z,10.63
2023-01-20T03:30:15.741Z,11.09
2023-01-20T03:31:21.569Z,10.39
2023-01-20T03:32:24.621Z,10.40
2023-01-20T03:33:28.747Z,10.66
2023-01-20T03:34:34.932Z,10.59
2023-01-20T03:35:38.030Z,11.16
2023-01-20T03:36:43.766Z,9.83
2023-01-20T03:37:46.097Z,10.43
2023-01-20T03:38:49.106Z,9.44
2023-01-20T03:39:53.710Z,11.07
2023-01-20T03:42:28.276Z,10.29
2023-01-20T03:43:40.397Z,10.82
2023-01-20T03:44:57.718Z,10.13
2023-01-20T03:46:06.404Z,11.10
2023-01-20T03:47:24.332Z,10.49
2023-01-20T03:49:55.100Z,10.24
2023-01-20T03:51:00.869Z,9.86
2023-01-20T03:53:34.094Z,11.51
2023-01-20T03:56:05.193Z,9.51
2023-01-20T03:57:14.553Z,9.82
2023-01-20T03:58:20.215Z,10.65
2023-01-20T03:59:23.386Z,10.63
2023-01-20T04:00:29.610Z,10.67
2023-01-20T04:01:38.930Z,10.91
2023-01-20T04:02:42.361Z,10.50
2023-01-20T04:03:46.862Z,11.18
2023-01-20T04:04:50.243Z,10.44
2023-01-20T04:05:55.006Z,9.93
2023-01-20T04:06:57.348Z,10.80
2023-01-20T04:08:03.505Z,9.97
2023-01-20T04:09:09.238Z,9.59
2023-01-20T04:10:15.045Z,10.41
2023-01-20T04:11:18.733Z,10.37
2023-01-20T04:12:21.106Z,11.09
2023-01-20T04:13:24.172Z,11.19
2023-01-20T04:14:26.314Z,10.98
2023-01-20T04:15:34.756Z,10.63
2023-01-20T04:16:37.615Z,9.69
2023-01-20T04:17:39.951Z,10.91
2023-01-20T04:18:45.698Z,9.75
2023-01-20T04:19:48.340Z,9.97
2023-01-20T04:20:54.285Z,9.84
2023-01-20T04:22:11.929Z,9.98
2023-01-20T04:23:23.288Z,9.63
2023-01-20T04:25:38.347Z,9.72
2023-01-20T04:26:40.662Z,9.80
2023-01-20T04:27:42.538Z,10.01
2023-01-20T04:28:44.553Z,9.98
2023-01-20T04:29:46.558Z,10.52
2023-01-20T04:30:49.210Z,10.05
2023-01-20T04:32:02.799Z,10.60
2023-01-20T04:33:04.917Z,10.55
2023-01-20T04:34:09.153Z,11.73
2023-01-20T04:35:14.579Z,10.92
2023-01-20T04:36:17.169Z,11.88
2023-01-20T04:37:19.164Z,11.05
2023-01-20T04:38:21.038Z,10.49
2023-01-20T04:39:22.954Z,10.77
2023-01-20T04:40:25.180Z,12.06
2023-01-20T04:41:27.189Z,11.33
2023-01-20T04:42:29.289Z,11.71
2023-01-20T04:43:31.152Z,12.45
2023-01-20T04:44:33.028Z,10.53
2023-01-20T04:45:35.709Z,11.59
2023-01-20T04:46:37.720Z,11.16
2023-01-20T04:47:39.689Z,11.77
2023-01-20T04:48:44.434Z,11.73
2023-01-20T04:49:46.397Z,11.66
2023-01-20T04:50:48.370Z,11.55
2023-01-20T04:51:51.871Z,11.42
2023-01-20T04:52:55.978Z,10.59
2023-01-20T04:53:59.183Z,10.76
2023-01-20T04:55:01.783Z,11.21
2023-01-20T04:56:06.554Z,11.85
2023-01-20T04:57:08.467Z,10.46
2023-01-20T04:58:10.622Z,10.67
2023-01-20T04:59:12.558Z,9.75
2023-01-20T05:00:15.560Z,10.43
2023-01-20T05:01:17.841Z,9.93
2023-01-20T05:02:20.333Z,11.82
2023-01-20T05:03:22.332Z,10.35
2023-01-20T05:04:24.479Z,10.33
2023-01-20T05:05:28.624Z,10.39
2023-01-20T05:06:30.650Z,11.24
2023-01-20T05:07:32.635Z,11.00
2023-01-20T05:08:34.823Z,11.55
2023-01-20T05:09:37.425Z,10.91
2023-01-20T05:10:39.501Z,9.71
2023-01-20T05:11:44.549Z,11.61
2023-01-20T05:12:46.812Z,10.71
2023-01-20T05:13:48.916Z,10.18
2023-01-20T05:14:51.415Z,10.18
2023-01-20T05:15:53.671Z,10.21
2023-01-20T05:16:56.168Z,10.66
2023-01-20T05:17:58.067Z,10.99
2023-01-20T05:19:00.909Z,10.89
2023-01-20T05:20:04.217Z,10.45
2023-01-20T05:21:06.507Z,10.72
2023-01-20T05:22:09.119Z,10.71
2023-01-20T05:23:11.784Z,10.74
2023-01-20T05:24:13.873Z,10.85
2023-01-20T05:25:16.627Z,10.65
2023-01-20T05:26:23.958Z,10.29
2023-01-20T05:27:26.157Z,10.22
2023-01-20T05:28:29.338Z,10.16
2023-01-20T05:29:31.651Z,10.36
2023-01-20T05:30:34.070Z,10.50
2023-01-20T05:31:36.430Z,11.12
2023-01-20T05:32:38.652Z,10.29
2023-01-20T05:33:40.765Z,9.96
2023-01-20T05:34:42.865Z,10.22
2023-01-20T05:35:45.340Z,9.29
2023-01-20T05:36:52.196Z,9.64
2023-01-20T05:37:56.296Z,10.09
2023-01-20T05:38:58.331Z,11.74
2023-01-20T05:40:00.342Z,9.86
2023-01-20T05:41:04.825Z,9.78
2023-01-20T05:42:06.738Z,10.66
2023-01-20T05:43:08.646Z,10.77
2023-01-20T05:44:10.612Z,10.37
2023-01-20T05:45:13.077Z,10.55
2023-01-20T05:46:16.587Z,10.59
2023-01-20T05:47:19.368Z,10.55
2023-01-20T05:48:21.542Z,10.11
2023-01-20T05:49:23.499Z,10.88
2023-01-20T05:50:27.507Z,11.30
2023-01-20T05:51:29.825Z,10.48
2023-01-20T05:52:32.443Z,10.88
2023-01-20T05:53:34.518Z,10.06
2023-01-20T05:54:36.649Z,9.65
2023-01-20T05:55:39.012Z,10.43
2023-01-20T05:56:41.312Z,10.35
2023-01-20T05:57:43.605Z,9.32
2023-01-20T05:58:45.499Z,10.01
2023-01-20T05:59:47.411Z,11.97
2023-01-20T06:00:49.496Z,10.55
2023-01-20T06:01:51.510Z,10.47
2023-01-20T06:02:53.841Z,10.69
2023-01-20T06:03:56.033Z,10.76
2023-01-20T06:05:00.311Z,10.68
2023-01-20T06:06:04.505Z,11.43
2023-01-20T06:07:06.568Z,10.77
2023-01-20T06:08:08.437Z,10.47
2023-01-20T06:09:10.428Z,10.43
2023-01-20T06:10:12.413Z,10.68
2023-01-20T06:11:14.484Z,10.57
2023-01-20T06:12:16.370Z,10.05
2023-01-20T06:13:18.404Z,10.69
2023-01-20T06:14:20.262Z,9.32
2023-01-20T06:15:24.925Z,10.27
2023-01-20T06:16:26.968Z,11.29
2023-01-20T06:17:29.100Z,10.92
2023-01-20T06:18:32.713Z,9.99
2023-01-20T06:19:34.614Z,9.95
2023-01-20T06:20:36.736Z,9.53
2023-01-20T06:21:38.595Z,10.27
2023-01-20T06:22:40.571Z,12.24
2023-01-20T06:23:42.465Z,10.93
2023-01-20T06:24:44.941Z,10.59
2023-01-20T06:25:46.869Z,10.53
2023-01-20T06:26:52.196Z,10.06
2023-01-20T06:27:54.127Z,9.94
2023-01-20T06:28:59.333Z,10.28
2023-01-20T06:30:01.247Z,10.94
2023-01-20T06:31:06.324Z,10.81
2023-01-20T06:32:08.303Z,11.83
2023-01-20T06:33:10.174Z,10.36
2023-01-20T06:34:12.604Z,10.54
2023-01-20T06:35:15.404Z,10.95
2023-01-20T06:36:17.834Z,10.73
2023-01-20T06:37:20.659Z,11.49
2023-01-20T06:38:25.688Z,11.63
2023-01-20T06:39:27.830Z,11.54
2023-01-20T06:40:29.923Z,12.38
2023-01-20T06:41:32.053Z,11.87
2023-01-20T06:42:33.912Z,11.72
2023-01-20T06:43:36.632Z,11.97
2023-01-20T06:44:38.520Z,12.03
2023-01-20T06:45:40.388Z,10.85
2023-01-20T06:46:42.436Z,12.07
2023-01-20T06:47:49.511Z,11.75
2023-01-20T06:48:51.623Z,11.12
2023-01-20T06:49:53.499Z,11.41
2023-01-20T06:51:09.503Z,12.77
2023-01-20T06:52:11.615Z,12.47
2023-01-20T06:53:13.562Z,13.29
2023-01-20T06:54:16.170Z,13.63
2023-01-20T06:55:18.220Z,12.77
2023-01-20T06:56:20.907Z,12.79
2023-01-20T06:57:23.021Z,12.26
2023-01-20T06:58:26.806Z,11.71
2023-01-20T06:59:28.725Z,11.96
2023-01-20T07:00:30.948Z,12.23
2023-01-20T07:01:33.078Z,11.40
2023-01-20T07:02:35.321Z,12.07
2023-01-20T07:03:37.692Z,11.56
2023-01-20T07:04:39.680Z,11.72
2023-01-20T07:05:42.360Z,11.98
2023-01-20T07:06:44.484Z,11.64
2023-01-20T07:07:46.371Z,11.81
2023-01-20T07:08:48.398Z,11.31
2023-01-20T07:09:55.323Z,11.96
2023-01-20T07:10:57.434Z,11.77
2023-01-20T07:11:59.295Z,11.35
2023-01-20T07:13:01.187Z,11.53
2023-01-20T07:14:04.759Z,10.94
2023-01-20T07:15:07.751Z,10.58
2023-01-20T07:16:13.735Z,11.39
2023-01-20T07:17:15.218Z,11.90
2023-01-20T07:18:17.195Z,10.73
2023-01-20T07:19:19.210Z,11.70
2023-01-20T07:20:22.492Z,11.03
2023-01-20T07:21:26.515Z,10.72
2023-01-20T07:22:28.844Z,10.92
2023-01-20T07:23:31.543Z,10.42
2023-01-20T07:24:33.466Z,10.37
2023-01-20T07:25:36.602Z,10.37
2023-01-20T07:26:38.729Z,10.54
2023-01-20T07:27:40.597Z,11.43
2023-01-20T07:28:43.045Z,10.95
2023-01-20T07:29:45.168Z,10.50
2023-01-20T07:30:47.302Z,10.02
2023-01-20T07:31:49.883Z,10.38
2023-01-20T07:32:53.012Z,9.34
2023-01-20T07:33:55.460Z,10.47
2023-01-20T07:34:57.447Z,10.40
2023-01-20T07:36:00.443Z,9.99
2023-01-20T07:37:02.484Z,9.97
2023-01-20T11:53:22.544Z,9.11
2023-01-20T11:54:27.464Z,8.29
2023-01-20T11:55:29.580Z,7.26
2023-01-20T11:56:44.476Z,7.61
2023-01-20T11:57:50.284Z,6.94
2023-01-20T11:59:02.094Z,6.96
2023-01-20T12:00:20.135Z,7.46
2023-01-20T12:01:27.275Z,7.19
2023-01-20T12:02:29.305Z,6.90
2023-01-20T12:05:21.636Z,6.91
2023-01-20T12:06:33.254Z,6.94
2023-01-20T12:07:38.981Z,6.69
2023-01-20T12:08:54.084Z,6.57
2023-01-20T12:10:05.680Z,6.78
2023-01-20T12:11:10.331Z,6.48
2023-01-20T12:12:33.601Z,6.70
2023-01-20T12:13:50.572Z,6.47
2023-01-20T12:16:11.128Z,6.51
2023-01-20T12:17:44.384Z,7.52
2023-01-20T12:19:01.755Z,6.78
2023-01-20T12:20:18.046Z,6.75
2023-01-20T12:21:24.121Z,6.83
2023-01-20T12:24:03.337Z,6.99
2023-01-20T12:25:15.349Z,6.87
2023-01-20T12:26:20.448Z,6.76
2023-01-20T12:27:26.116Z,6.78
2023-01-20T12:28:49.452Z,6.18
2023-01-20T12:29:55.133Z,6.81
2023-01-20T12:31:03.009Z,6.14
2023-01-20T12:32:05.315Z,6.63
2023-01-20T12:33:23.368Z,6.51
2023-01-20T12:34:30.319Z,6.17
2023-01-20T12:35:35.990Z,6.26
2023-01-20T12:37:12.053Z,6.06
2023-01-20T12:38:17.839Z,6.92
2023-01-20T12:39:23.513Z,6.58
2023-01-20T12:40:41.939Z,6.56
2023-01-20T12:42:09.311Z,6.68
2023-01-20T12:44:54.133Z,7.07
2023-01-20T12:46:14.417Z,7.77
2023-01-20T12:47:26.809Z,6.91
2023-01-20T12:48:35.120Z,7.36
2023-01-20T12:49:43.869Z,7.06
2023-01-20T12:51:09.839Z,6.67
2023-01-20T12:52:24.772Z,7.38
2023-01-20T12:53:47.539Z,7.08
2023-01-20T12:55:10.285Z,7.60
2023-01-20T12:56:49.764Z,7.30
2023-01-20T12:57:58.320Z,8.08
2023-01-20T12:59:23.859Z,7.35
2023-01-20T13:00:49.829Z,6.91
2023-01-20T13:03:14.825Z,7.28
2023-01-20T13:04:48.018Z,7.68
2023-01-20T13:06:19.352Z,7.22
2023-01-20T13:07:39.898Z,7.28
2023-01-20T13:08:57.508Z,7.39
2023-01-20T13:10:22.794Z,7.44
2023-01-20T13:11:49.370Z,6.85
2023-01-20T13:13:01.079Z,8.26
2023-01-20T13:14:26.908Z,7.86
2023-01-20T13:15:35.648Z,8.32
2023-01-20T13:16:44.784Z,8.41
2023-01-20T13:17:59.536Z,8.72
2023-01-20T13:19:17.587Z,8.83
2023-01-20T13:20:26.702Z,8.66
2023-01-20T13:21:33.210Z,8.51
2023-01-20T13:22:36.314Z,9.39
2023-01-20T13:23:38.658Z,9.20
2023-01-20T13:24:44.912Z,8.99
2023-01-20T13:25:47.964Z,9.64
2023-01-20T13:26:50.489Z,11.09
2023-01-20T13:27:53.369Z,10.66
2023-01-20T13:28:56.815Z,10.23
2023-01-20T13:30:00.680Z,10.53
2023-01-20T13:31:09.460Z,9.96
2023-01-20T13:32:35.244Z,10.63
2023-01-20T13:33:40.275Z,10.37
2023-01-20T13:34:43.238Z,10.31
2023-01-20T13:35:48.938Z,10.15
2023-01-20T13:37:07.289Z,10.27
2023-01-20T13:38:24.506Z,8.34
2023-01-20T13:39:47.585Z,8.34
2023-01-20T13:40:53.001Z,8.69
2023-01-20T13:41:55.853Z,8.08
2023-01-20T13:42:58.106Z,7.96
2023-01-20T13:44:04.266Z,7.28
2023-01-20T13:45:16.036Z,7.08
2023-01-20T13:46:22.719Z,7.53
2023-01-20T13:48:02.120Z,7.57
2023-01-20T13:49:13.692Z,7.35
2023-01-20T13:50:25.153Z,7.76
2023-01-20T13:51:39.878Z,7.96
2023-01-20T13:52:54.790Z,8.72
2023-01-20T13:54:26.458Z,7.33
2023-01-20T13:55:32.295Z,8.16
2023-01-20T13:56:34.414Z,7.78
2023-01-20T13:57:36.405Z,8.21
2023-01-20T13:58:38.800Z,7.97
2023-01-20T13:59:40.731Z,8.49
2023-01-20T14:00:43.533Z,8.57
2023-01-20T14:01:45.552Z,8.65
2023-01-20T14:02:49.647Z,8.12
2023-01-20T14:04:08.093Z,9.26
2023-01-20T14:06:41.911Z,7.72
2023-01-20T14:07:43.922Z,8.10
2023-01-20T14:08:49.254Z,7.92
2023-01-20T14:09:53.226Z,8.46
2023-01-20T14:11:14.087Z,8.54
2023-01-20T14:12:16.032Z,8.48
2023-01-20T14:13:21.655Z,7.83
2023-01-20T14:14:26.028Z,8.34
2023-01-20T14:15:32.704Z,8.25
2023-01-20T14:16:39.671Z,8.38
2023-01-20T14:17:42.278Z,7.47
2023-01-20T14:18:47.165Z,9.18
2023-01-20T14:19:51.845Z,7.86
2023-01-20T14:22:25.675Z,8.88
2023-01-20T14:23:30.961Z,8.58
2023-01-20T14:24:36.492Z,7.34
2023-01-20T14:25:38.592Z,8.49
2023-01-20T14:26:40.767Z,8.24
2023-01-20T14:27:43.864Z,8.18
2023-01-20T14:28:51.896Z,7.54
2023-01-20T14:29:56.274Z,7.91
2023-01-20T14:31:13.732Z,7.93
2023-01-20T14:32:22.717Z,7.87
2023-01-20T14:33:24.824Z,8.07
2023-01-20T14:34:29.408Z,7.31
2023-01-20T14:35:33.568Z,7.84
2023-01-20T14:36:36.581Z,8.11
2023-01-20T14:37:39.847Z,8.13
2023-01-20T14:38:56.579Z,8.74
2023-01-20T14:39:51.452Z,8.46
2023-01-20T14:40:54.713Z,9.05
2023-01-20T14:42:02.317Z,8.88
2023-01-20T14:43:17.366Z,8.69
2023-01-20T14:44:24.161Z,9.03
2023-01-20T14:45:29.423Z,9.10
2023-01-20T14:46:34.242Z,9.24
2023-01-20T14:47:37.894Z,9.23
2023-01-20T14:48:41.917Z,9.24
2023-01-20T14:49:47.925Z,8.36
2023-01-20T14:50:52.342Z,8.55
2023-01-20T14:51:55.024Z,10.32
2023-01-20T14:52:57.776Z,9.67
2023-01-20T14:54:29.426Z,9.79
2023-01-20T14:55:38.550Z,9.46
2023-01-20T14:56:44.466Z,9.26
2023-01-20T14:57:46.519Z,9.96
2023-01-20T14:58:51.421Z,9.11
2023-01-20T15:00:20.879Z,10.25
2023-01-20T15:01:27.127Z,10.29
2023-01-20T15:02:32.658Z,9.76
2023-01-20T15:03:34.935Z,10.25
2023-01-20T15:04:38.060Z,10.15
2023-01-20T15:06:56.965Z,10.34
2023-01-20T15:08:17.700Z,10.76
2023-01-20T15:09:28.414Z,10.59
2023-01-20T15:10:31.401Z,9.89
2023-01-20T15:11:34.210Z,10.09
2023-01-20T15:12:46.041Z,10.03
2023-01-20T15:13:54.516Z,9.92
2023-01-20T15:16:21.103Z,9.67
2023-01-20T15:17:23.145Z,9.81
2023-01-20T15:18:25.021Z,9.57
2023-01-20T15:19:32.457Z,10.10
2023-01-20T15:20:37.937Z,10.17
2023-01-20T15:21:44.164Z,8.76
2023-01-20T15:22:47.335Z,9.59
2023-01-20T15:23:51.155Z,10.02
2023-01-20T15:24:53.957Z,9.13
2023-01-20T15:25:56.633Z,10.62
2023-01-20T15:27:01.913Z,10.38
2023-01-20T15:28:04.266Z,9.87
2023-01-20T15:29:24.552Z,10.55
2023-01-20T15:30:26.623Z,9.16
2023-01-20T15:31:28.781Z,9.34
2023-01-20T15:32:30.892Z,10.07
2023-01-20T15:33:32.944Z,10.45
2023-01-20T15:34:35.641Z,10.51
2023-01-20T15:35:38.003Z,9.62
2023-01-20T20:29:52.784Z,24.00
2023-01-20T20:30:58.018Z,22.19
2023-01-20T20:32:00.319Z,21.88
2023-01-20T20:33:02.800Z,22.69
2023-01-20T20:34:07.081Z,22.54
2023-01-20T20:35:09.249Z,21.92
2023-01-20T20:36:12.213Z,22.98
2023-01-20T20:37:14.276Z,21.29
2023-01-20T20:38:16.653Z,21.27
2023-01-20T20:39:19.148Z,21.18
2023-01-20T20:40:21.213Z,22.37
2023-01-20T20:41:24.071Z,20.41
2023-01-20T20:42:25.987Z,19.58
2023-01-20T20:43:29.267Z,21.77
2023-01-20T20:44:31.277Z,20.27
2023-01-20T20:45:33.499Z,21.63
2023-01-20T20:46:35.525Z,20.25
2023-01-20T20:47:37.918Z,20.95
2023-01-20T20:48:39.932Z,21.17
2023-01-20T20:49:41.977Z,19.71
2023-01-20T20:50:44.096Z,20.27
2023-01-20T20:51:46.380Z,22.00
2023-01-20T20:52:48.313Z,23.10
2023-01-20T20:53:53.206Z,21.15
2023-01-20T20:54:55.512Z,22.05
2023-01-20T20:55:57.430Z,20.55
2023-01-20T20:56:59.655Z,20.17
2023-01-20T20:58:01.639Z,20.76
2023-01-20T20:59:03.986Z,21.77
2023-01-20T21:00:07.826Z,21.43
2023-01-20T21:03:25.801Z,20.57
2023-01-20T21:04:27.947Z,19.87
2023-01-20T21:05:29.888Z,20.43
2023-01-20T21:06:33.098Z,21.72
2023-01-20T21:07:35.252Z,22.31
2023-01-20T21:08:38.275Z,20.96
2023-01-20T21:09:40.725Z,20.63
2023-01-20T21:10:42.835Z,19.65
2023-01-20T21:11:44.862Z,21.30
2023-01-20T21:12:47.144Z,21.27
2023-01-20T21:13:49.142Z,21.53
2023-01-20T21:14:51.339Z,22.45
2023-01-20T21:16:01.175Z,20.93
2023-01-20T21:17:04.021Z,21.71
2023-01-20T21:18:06.826Z,21.81
2023-01-20T21:19:08.744Z,20.65
2023-01-20T21:20:12.270Z,21.67
2023-01-20T21:21:14.895Z,22.45
2023-01-20T21:22:16.919Z,20.92
2023-01-20T21:23:18.883Z,22.17
2023-01-20T21:24:20.782Z,21.93
2023-01-20T21:25:23.015Z,21.99
2023-01-20T21:26:30.070Z,21.23
2023-01-20T21:27:31.635Z,22.44
2023-01-20T21:28:36.258Z,22.22
2023-01-20T21:29:38.331Z,21.95
2023-01-20T21:30:40.846Z,22.89
2023-01-20T21:31:42.911Z,23.65
2023-01-20T21:32:45.303Z,21.97
2023-01-20T21:33:54.348Z,23.60
2023-01-20T21:34:56.368Z,21.84
2023-01-20T21:36:00.749Z,22.33
2023-01-20T21:37:02.871Z,24.06
2023-01-20T21:38:06.149Z,21.78
2023-01-20T21:39:15.843Z,23.07
2023-01-20T21:40:18.446Z,23.78
2023-01-20T21:41:21.086Z,22.76
2023-01-20T21:42:23.179Z,23.38
2023-01-20T21:43:33.012Z,23.05
2023-01-20T21:44:35.140Z,22.59
2023-01-20T21:45:37.075Z,22.51
2023-01-20T21:46:41.257Z,22.83
2023-01-20T21:47:43.238Z,23.85
2023-01-20T21:48:45.720Z,22.45
2023-01-20T21:49:47.641Z,21.80
2023-01-20T21:50:49.845Z,22.80
2023-01-20T21:51:51.822Z,24.12
2023-01-20T21:52:53.701Z,22.67
2023-01-20T21:53:55.703Z,24.90
2023-01-20T21:54:57.743Z,23.21
2023-01-20T21:55:59.658Z,24.50
2023-01-20T21:57:01.817Z,23.36
2023-01-20T21:58:03.946Z,23.71
2023-01-20T21:59:07.312Z,23.57
2023-01-20T22:00:11.003Z,24.40
2023-01-20T22:01:13.283Z,24.76
2023-01-20T22:02:15.633Z,23.12
2023-01-20T22:03:17.766Z,24.63
2023-01-20T22:04:19.662Z,24.19
2023-01-20T22:05:21.653Z,23.31
2023-01-20T22:06:23.729Z,23.95
2023-01-20T22:07:25.739Z,23.17
2023-01-20T22:08:27.798Z,24.50
2023-01-20T22:09:29.673Z,24.25
2023-01-20T22:10:31.858Z,24.83
2023-01-20T22:11:34.797Z,24.39
2023-01-20T22:12:36.712Z,26.08
2023-01-20T22:13:38.591Z,23.55
2023-01-20T22:14:41.177Z,23.95
2023-01-20T22:15:43.567Z,24.91
2023-01-20T22:16:46.015Z,24.54
2023-01-20T22:17:48.249Z,23.87
2023-01-20T22:18:51.349Z,26.21
2023-01-20T22:19:53.333Z,27.48
2023-01-20T22:21:03.375Z,24.65
2023-01-20T22:22:07.344Z,24.51
2023-01-20T22:23:09.672Z,24.75
2023-01-20T22:24:11.566Z,25.51
2023-01-20T22:25:13.852Z,24.73
2023-01-20T22:26:15.935Z,26.17
2023-01-20T22:27:18.080Z,24.63
2023-01-20T22:28:19.940Z,25.60
2023-01-20T22:29:22.547Z,25.49
2023-01-20T22:30:24.548Z,25.29
2023-01-20T22:31:26.613Z,25.06
2023-01-20T22:32:28.602Z,25.64
2023-01-20T22:33:30.483Z,26.09
2023-01-20T22:34:32.347Z,24.53
2023-01-20T22:35:34.221Z,25.33
2023-01-20T22:36:37.035Z,26.43
2023-01-20T22:37:38.921Z,26.34
2023-01-20T22:38:40.907Z,26.75
2023-01-20T22:39:42.849Z,25.40
2023-01-20T22:40:44.817Z,26.60
2023-01-20T22:41:46.738Z,25.80
2023-01-20T22:42:49.787Z,25.77
2023-01-20T22:43:52.245Z,26.78
2023-01-20T22:44:54.118Z,26.42
2023-01-20T22:46:00.298Z,24.70
2023-01-20T22:47:02.399Z,26.33
2023-01-20T22:48:06.383Z,25.13
2023-01-20T22:49:09.095Z,27.24
2023-01-20T22:50:11.652Z,26.18
2023-01-20T22:51:16.481Z,26.41
2023-01-20T22:52:18.457Z,28.35
2023-01-20T22:53:20.335Z,25.85
2023-01-20T22:54:22.201Z,26.07
2023-01-20T22:55:24.392Z,26.10
2023-01-20T22:56:29.245Z,25.59
2023-01-20T22:57:31.164Z,27.57
2023-01-20T22:58:33.937Z,27.27
2023-01-20T22:59:38.726Z,25.54
2023-01-20T23:00:40.734Z,26.54
2023-01-20T23:01:42.719Z,24.27
2023-01-20T23:02:46.129Z,25.35
2023-01-20T23:03:57.799Z,26.66
2023-01-20T23:06:02.048Z,25.64
2023-01-20T23:07:03.930Z,24.92
2023-01-20T23:08:05.912Z,25.73
2023-01-20T23:09:11.185Z,27.63
2023-01-20T23:10:13.522Z,25.20
2023-01-20T23:11:17.675Z,24.09
2023-01-20T23:12:21.020Z,25.89
2023-01-20T23:13:23.364Z,26.19
2023-01-20T23:14:25.445Z,28.09
2023-01-20T23:15:28.442Z,27.83
2023-01-20T23:16:30.689Z,26.85
2023-01-20T23:17:32.726Z,29.18
2023-01-20T23:18:34.614Z,26.04
2023-01-20T23:19:36.505Z,28.99
2023-01-20T23:20:38.816Z,25.99
2023-01-20T23:21:40.764Z,27.75
2023-01-20T23:22:42.731Z,25.74
2023-01-20T23:23:44.833Z,27.98
2023-01-20T23:24:46.843Z,25.92
2023-01-20T23:25:50.228Z,26.89
2023-01-20T23:26:53.373Z,28.49
2023-01-20T23:27:55.615Z,26.61
2023-01-20T23:28:57.637Z,25.29
2023-01-20T23:29:59.631Z,27.37
2023-01-20T23:31:03.838Z,28.21
2023-01-20T23:32:06.995Z,26.65
2023-01-20T23:33:09.687Z,25.66
2023-01-20T23:34:11.919Z,26.47
2023-01-20T23:35:13.840Z,26.49
2023-01-20T23:36:24.250Z,28.36
2023-01-20T23:37:26.173Z,26.46
2023-01-20T23:38:28.038Z,27.87
2023-01-20T23:39:30.949Z,27.13
2023-01-20T23:40:34.313Z,28.32
2023-01-20T23:41:36.206Z,27.42
2023-01-20T23:42:38.073Z,27.26
